Aeroporto :
LOGIN :

Iscrizione | Disclaimer

   EN    FR    IT 

 










Sommario :    VFR   VFR Marginale   IFR   IFR Intensivo   IFR Molto Intensivo
Visibilità : 
Base nubi : 
>= 8 km
>= 3000ft
5 / 8 km
1000 / 3000 ft
1500m / 5 km
500 / 1000 ft
800 / 1500m
200 / 500 ft
< 800m
< 200 ft
Simboli :   Temporali  Nebbia  Neve Forte  Precipitazioni Forti  Vento > 20 kt
SIGMETs :   Varie  Temporali  Ghiacco  Turbolenza  Onda orograficha  Ceneri Vulcaniche







- Altitudine del aeroporto : 392 ft
- Codice IATA : CDG
- Carte del aeroporto


LFPG - Paris-Aeroport Charles De Gaulle

ULTIMO METAR :
  • 200830Z 34005KT 310V020 7000 BKN012 12/10 Q1011 NOSIG

METARs OBSOLETI :
  • 200800Z 35005KT 7000 SCT011 BKN017 12/10 Q1011 NOSIG
  • 200730Z 33005KT 4000 -RA BKN008 BKN017 11/10 Q1011 NOSIG
  • 200700Z 34005KT 3500 -RA BKN007 BKN015 11/10 Q1010 NOSIG
  • 200630Z 33005KT 3500 RA BKN006 BKN014 11/10 Q1010 NOSIG
  • 200600Z 34007KT 6000 -RA BKN008 BKN014 11/10 Q1010 NOSIG

TAF TAF LFPG
Valido dal 20 a 06 ore il 21 a 12 ore UTC


200500Z 2006/2112 33008KT 6000 BKN007 TX19/2016Z TN09/2104Z
PROB30
TEMPO 2006/2009 4000 BR
BECMG 2009/2011 SCT025 BKN045
PROB40
TEMPO 2011/2016 SCT035TCU
BECMG 2016/2018 CAVOK
PROB40
TEMPO 2105/2109 4000 BR BKN004
ATIS : +33 1 48 62 10 92
Nessun NOTAM noto per questo aeroporto.



MetMap, La meteo Aeronautica in un colpo d'occhio ! - Copyright ORBIFLY Dicembre 2007 - Disclaimer

ORBIFLY MET'MAP TEAM :

Programmazione e sviluppo : Alexandra Zaïnal
Concezione e sviluppo : Baudouin d'Aumeries
Co-Programmazione e sviluppo : Marc-Olivier Méhu
Supporto tecnico e logistico : Manuel Goepfert
Aiuto per la traduzione : Arnaldo La Scala

Contatto : metmap@orbifly.com




FONTI E CREDITI :

   NOAA